Time;durP1;ratioP1;P1;durP2;ratioP2;P2;SDS_P1;SDS_P2;PMS_P1;PMS_P2;Temp;Humidity;BMP_temperature;BMP_pressure;BME280_temperature;BME280_humidity;BME280_pressure;Samples;Min_cycle;Max_cycle;Signal;HPM_P1;HPM_P2
2022/08/11 00:02:44;;;;;;;;;;;24.30;64.70;;;;;;5113906;28;20293;-72
2022/08/11 00:05:11;;;;;;;;;;;24.30;64.70;;;;;;5111222;27;19927;-71
2022/08/11 00:07:42;;;;;;;;;;;24.30;64.70;;;;;;5115730;28;19915;-73
2022/08/11 00:10:12;;;;;;;;;;;24.30;64.70;;;;;;5118619;28;19961;-74
2022/08/11 00:12:37;;;;;;;;;;;24.40;64.70;;;;;;5117209;28;19953;-73
2022/08/11 00:15:03;;;;;;;;;;;24.40;64.80;;;;;;5118466;28;20357;-71
2022/08/11 00:17:30;;;;;;;;;;;24.40;64.70;;;;;;5118394;28;19998;-73
2022/08/11 00:20:04;;;;;;;;;;;24.40;64.70;;;;;;5118220;28;19912;-73
2022/08/11 00:22:31;;;;;;;;;;;24.40;64.70;;;;;;5118456;28;20376;-80
2022/08/11 00:24:57;;;;;;;;;;;24.30;64.60;;;;;;5117278;28;20272;-72
2022/08/11 00:27:36;;;;;;;;;;;24.40;64.70;;;;;;5117001;28;19916;-73
2022/08/11 00:30:04;;;;;;;;;;;24.40;64.70;;;;;;5118763;28;19907;-72
2022/08/11 00:32:30;;;;;;;;;;;24.40;64.70;;;;;;5116989;28;19908;-74
2022/08/11 00:34:56;;;;;;;;;;;24.40;64.60;;;;;;5118510;28;19952;-69
2022/08/11 00:37:22;;;;;;;;;;;24.40;64.60;;;;;;5118053;28;19923;-73
2022/08/11 00:39:50;;;;;;;;;;;24.40;64.60;;;;;;5117949;28;20472;-72
2022/08/11 00:42:15;;;;;;;;;;;24.40;64.70;;;;;;5116674;28;19915;-73
2022/08/11 00:44:53;;;;;;;;;;;24.40;64.60;;;;;;5118043;28;19907;-71
2022/08/11 00:47:34;;;;;;;;;;;24.40;64.70;;;;;;5118084;28;19923;-73
2022/08/11 00:49:59;;;;;;;;;;;24.40;65.30;;;;;;5116790;28;20052;-73
2022/08/11 00:52:25;;;;;;;;;;;24.40;64.70;;;;;;5117985;28;19961;-73
2022/08/11 00:55:09;;;;;;;;;;;24.40;64.70;;;;;;5116556;28;19914;-73
2022/08/11 00:57:38;;;;;;;;;;;24.40;64.70;;;;;;5118142;28;19908;-72
2022/08/11 01:00:16;;;;;;;;;;;24.40;64.70;;;;;;5117818;28;20008;-70
2022/08/11 01:02:54;;;;;;;;;;;24.40;64.80;;;;;;5117248;28;19957;-73
2022/08/11 01:05:34;;;;;;;;;;;24.40;64.80;;;;;;5117706;28;19923;-72
2022/08/11 01:08:04;;;;;;;;;;;24.40;64.80;;;;;;5117638;28;19978;-74
2022/08/11 01:10:30;;;;;;;;;;;24.40;64.80;;;;;;5117595;28;19907;-72
2022/08/11 01:13:04;;;;;;;;;;;24.40;64.80;;;;;;5115845;28;19919;-73
2022/08/11 01:15:48;;;;;;;;;;;24.40;64.80;;;;;;5115868;28;19960;-73
2022/08/11 01:18:43;;;;;;;;;;;24.40;64.80;;;;;;5115945;28;19908;-73
2022/08/11 01:21:18;;;;;;;;;;;24.40;64.90;;;;;;5117560;28;19907;-72
2022/08/11 01:24:02;;;;;;;;;;;24.40;64.90;;;;;;5117168;28;20027;-72
2022/08/11 01:26:31;;;;;;;;;;;24.40;64.90;;;;;;5117537;28;20004;-73
2022/08/11 01:28:59;;;;;;;;;;;24.40;64.90;;;;;;5117141;28;20281;-72
2022/08/11 01:31:27;;;;;;;;;;;24.40;64.90;;;;;;5115810;28;20322;-73
2022/08/11 01:33:56;;;;;;;;;;;24.40;64.90;;;;;;5116843;28;19915;-73
2022/08/11 01:36:21;;;;;;;;;;;24.40;65.00;;;;;;5117110;28;19916;-74
2022/08/11 01:39:06;;;;;;;;;;;24.40;65.00;;;;;;5116774;28;19915;-72
2022/08/11 01:44:36;;;;;;;;;;;24.40;65.00;;;;;;5116877;28;19908;-73
2022/08/11 01:47:08;;;;;;;;;;;24.40;65.10;;;;;;5116897;28;19923;-74
2022/08/11 01:49:48;;;;;;;;;;;24.40;65.10;;;;;;5117136;28;19908;-73
2022/08/11 01:52:24;;;;;;;;;;;24.40;65.10;;;;;;5116603;28;19960;-73
2022/08/11 01:55:05;;;;;;;;;;;24.40;65.10;;;;;;5116492;28;19908;-71
2022/08/11 01:57:35;;;;;;;;;;;24.40;65.10;;;;;;5116479;28;20357;-76
2022/08/11 02:00:06;;;;;;;;;;;24.40;65.20;;;;;;5116451;28;19914;-78
2022/08/11 02:02:53;;;;;;;;;;;24.40;65.20;;;;;;5116607;28;19924;-72
2022/08/11 02:05:47;;;;;;;;;;;24.40;65.20;;;;;;5116619;28;19977;-72
2022/08/11 02:08:26;;;;;;;;;;;24.30;65.20;;;;;;5103137;28;19916;-73
2022/08/11 02:11:32;;;;;;;;;;;24.40;65.20;;;;;;5116138;28;19950;-73
2022/08/11 02:14:01;;;;;;;;;;;24.40;65.30;;;;;;5116387;28;20349;-73
2022/08/11 02:16:41;;;;;;;;;;;24.40;65.30;;;;;;5116405;28;20281;-74
2022/08/11 02:25:06;;;;;;;;;;;24.40;65.30;;;;;;5116480;28;19919;-73
2022/08/11 02:27:40;;;;;;;;;;;24.40;65.30;;;;;;5115818;28;19920;-73
2022/08/11 02:30:08;;;;;;;;;;;24.40;65.40;;;;;;5115798;28;19907;-73
2022/08/11 02:35:18;;;;;;;;;;;24.40;65.40;;;;;;5115908;28;19919;-74
2022/08/11 02:37:59;;;;;;;;;;;24.40;65.40;;;;;;5114568;28;19916;-74
2022/08/11 02:40:44;;;;;;;;;;;24.40;66.00;;;;;;5114599;28;19907;-73
2022/08/11 02:43:28;;;;;;;;;;;24.40;65.40;;;;;;5116141;28;19930;-72
2022/08/11 02:46:14;;;;;;;;;;;24.40;65.40;;;;;;5115562;28;19954;-70
2022/08/11 02:51:34;;;;;;;;;;;24.40;65.40;;;;;;5115492;28;19976;-74
2022/08/11 02:54:19;;;;;;;;;;;24.30;65.40;;;;;;5115515;28;20242;-73
2022/08/11 02:56:55;;;;;;;;;;;24.40;65.50;;;;;;5115430;28;19908;-72
2022/08/11 03:02:42;;;;;;;;;;;24.40;65.50;;;;;;5072505;28;19909;-73
2022/08/11 03:05:16;;;;;;;;;;;24.40;65.60;;;;;;5072349;28;19921;-73
2022/08/11 03:08:00;;;;;;;;;;;24.40;65.50;;;;;;5097506;28;19916;-73
2022/08/11 03:10:44;;;;;;;;;;;24.40;65.50;;;;;;5115055;28;20307;-73
2022/08/11 03:19:12;;;;;;;;;;;24.30;65.50;;;;;;5115149;28;20395;-73
2022/08/11 03:21:45;;;;;;;;;;;24.40;65.60;;;;;;5114251;28;19908;-73
2022/08/11 03:24:18;;;;;;;;;;;24.40;65.60;;;;;;5114642;28;19916;-73
2022/08/11 03:27:00;;;;;;;;;;;24.40;65.60;;;;;;5114290;28;19926;-73
2022/08/11 03:29:30;;;;;;;;;;;24.40;65.60;;;;;;5114850;28;20014;-73
2022/08/11 03:32:05;;;;;;;;;;;24.40;65.70;;;;;;5114835;28;19961;-73
2022/08/11 03:34:31;;;;;;;;;;;24.40;65.60;;;;;;5114357;28;19912;-73
2022/08/11 03:37:47;;;;;;;;;;;24.40;65.70;;;;;;5114755;28;19912;-73
2022/08/11 03:41:41;;;;;;;;;;;24.40;65.60;;;;;;5115166;28;19953;-77
2022/08/11 03:43:21;;;;;;;;;;;24.40;65.70;;;;;;5113948;28;19919;-74
2022/08/11 03:45:49;;;;;;;;;;;24.40;65.70;;;;;;5114641;28;20289;-73
2022/08/11 03:48:23;;;;;;;;;;;24.40;65.70;;;;;;5114428;28;19959;-73
2022/08/11 03:51:07;;;;;;;;;;;24.40;65.70;;;;;;5114402;28;19912;-77
2022/08/11 03:53:33;;;;;;;;;;;24.40;65.70;;;;;;5114462;28;19911;-75
2022/08/11 03:56:01;;;;;;;;;;;24.40;65.70;;;;;;5114683;28;19978;-74
2022/08/11 03:58:45;;;;;;;;;;;24.40;65.70;;;;;;5114561;28;19907;-74
2022/08/11 04:01:20;;;;;;;;;;;24.40;65.70;;;;;;5113334;28;19908;-73
2022/08/11 04:04:04;;;;;;;;;;;24.40;65.70;;;;;;5114383;28;19908;-75
2022/08/11 04:06:35;;;;;;;;;;;24.40;65.70;;;;;;5114344;28;20010;-73
2022/08/11 04:09:24;;;;;;;;;;;24.40;65.70;;;;;;5114301;28;19912;-73
2022/08/11 04:12:08;;;;;;;;;;;24.40;65.70;;;;;;5107375;28;20006;-72
2022/08/11 04:17:34;;;;;;;;;;;24.40;65.70;;;;;;5114077;28;20285;-74
2022/08/11 04:20:23;;;;;;;;;;;24.40;65.70;;;;;;5114540;28;19915;-72
2022/08/11 04:22:52;;;;;;;;;;;24.40;65.80;;;;;;5100765;28;19908;-72
2022/08/11 04:25:27;;;;;;;;;;;24.40;65.80;;;;;;5114183;28;19953;-74
2022/08/11 04:28:03;;;;;;;;;;;24.40;65.80;;;;;;5114863;28;19957;-73
2022/08/11 04:30:56;;;;;;;;;;;24.50;65.80;;;;;;5114316;28;19912;-73
2022/08/11 04:33:21;;;;;;;;;;;24.50;65.90;;;;;;5114019;28;19907;-71
2022/08/11 04:36:05;;;;;;;;;;;24.40;65.80;;;;;;5114813;28;19960;-74
2022/08/11 04:38:50;;;;;;;;;;;24.40;65.80;;;;;;5112753;28;19922;-76
2022/08/11 04:43:19;;;;;;;;;;;24.50;66.00;;;;;;5113868;28;19935;-73
2022/08/11 04:44:42;;;;;;;;;;;24.50;66.00;;;;;;5113845;28;19930;-70
2022/08/11 05:01:53;;;;;;;;;;;24.50;66.10;;;;;;5117127;28;19921;-74
2022/08/11 05:07:21;;;;;;;;;;;24.50;66.10;;;;;;5116492;28;19937;-74
2022/08/11 05:09:58;;;;;;;;;;;24.50;66.10;;;;;;5116977;28;20417;-73
2022/08/11 05:12:42;;;;;;;;;;;24.50;66.10;;;;;;5115269;28;19989;-72
2022/08/11 05:35:10;;;;;;;;;;;25.30;66.70;;;;;;5115545;28;20032;-76
2022/08/11 05:57:01;;;;;;;;;;;25.30;66.40;;;;;;5115782;28;19957;-73
2022/08/11 05:59:27;;;;;;;;;;;25.20;66.90;;;;;;5115416;28;20331;-74
2022/08/11 06:01:58;;;;;;;;;;;25.20;66.80;;;;;;5114873;28;19908;-73
2022/08/11 06:04:24;;;;;;;;;;;25.20;66.60;;;;;;5115204;28;20281;-73
2022/08/11 06:06:55;;;;;;;;;;;25.10;66.80;;;;;;5115806;28;19911;-73
2022/08/11 06:09:22;;;;;;;;;;;25.10;67.20;;;;;;5115586;28;20422;-73
2022/08/11 06:11:48;;;;;;;;;;;25.00;67.30;;;;;;5115654;28;20056;-73
2022/08/11 06:14:14;;;;;;;;;;;24.90;66.70;;;;;;5116479;27;19960;-73
2022/08/11 06:16:40;;;;;;;;;;;24.90;67.10;;;;;;5114935;28;20357;-73
2022/08/11 06:19:07;;;;;;;;;;;24.90;67.40;;;;;;5114751;28;19912;-73
2022/08/11 06:21:34;;;;;;;;;;;24.80;67.30;;;;;;5115783;28;20026;-71
2022/08/11 06:24:03;;;;;;;;;;;24.80;67.30;;;;;;5115945;28;19916;-78
2022/08/11 06:26:28;;;;;;;;;;;24.70;67.80;;;;;;5116004;28;19908;-72
2022/08/11 06:28:56;;;;;;;;;;;24.70;68.10;;;;;;5116095;28;19937;-70
2022/08/11 06:31:25;;;;;;;;;;;24.70;68.00;;;;;;5114967;28;19912;-74
2022/08/11 06:33:50;;;;;;;;;;;24.60;67.70;;;;;;5115019;28;19943;-74
2022/08/11 06:36:46;;;;;;;;;;;24.50;67.20;;;;;;5115953;28;19920;-74
2022/08/11 06:39:14;;;;;;;;;;;24.50;67.80;;;;;;5116144;28;19908;-73
2022/08/11 06:41:45;;;;;;;;;;;24.40;67.50;;;;;;5115759;28;19982;-75
2022/08/11 06:44:10;;;;;;;;;;;24.30;67.80;;;;;;5115641;28;19911;-79
2022/08/11 06:46:40;;;;;;;;;;;24.20;68.40;;;;;;5115337;28;19908;-75
2022/08/11 06:51:10;;;;;;;;;;;24.20;68.20;;;;;;5115773;28;19916;-74
2022/08/11 06:51:53;;;;;;;;;;;24.20;69.00;;;;;;5115883;28;20300;-72
2022/08/11 06:54:19;;;;;;;;;;;24.20;68.40;;;;;;5115509;28;19914;-74
2022/08/11 07:02:27;;;;;;;;;;;24.10;69.60;;;;;;5106523;28;19914;-74
2022/08/11 07:05:02;;;;;;;;;;;24.10;69.00;;;;;;5115349;28;19946;-73
2022/08/11 07:15:47;;;;;;;;;;;24.20;70.00;;;;;;5114859;28;19918;-73
2022/08/11 07:29:43;;;;;;;;;;;24.20;69.50;;;;;;5115142;28;20339;-73
2022/08/11 07:32:13;;;;;;;;;;;24.20;69.10;;;;;;5114618;28;19908;-74
2022/08/11 07:34:42;;;;;;;;;;;24.20;69.20;;;;;;5115288;28;20246;-74
2022/08/11 07:37:12;;;;;;;;;;;24.30;69.40;;;;;;5114766;28;19922;-74
2022/08/11 07:39:38;;;;;;;;;;;24.40;69.40;;;;;;5113449;28;19908;-73
2022/08/11 07:42:05;;;;;;;;;;;24.50;69.50;;;;;;5114698;28;19914;-74
2022/08/11 07:48:10;;;;;;;;;;;24.60;69.10;;;;;;5114645;28;19969;-73
2022/08/11 07:52:46;;;;;;;;;;;25.00;67.90;;;;;;5114724;28;19958;-74
2022/08/11 07:55:13;;;;;;;;;;;25.10;67.40;;;;;;5112998;28;19908;-74
2022/08/11 08:19:36;;;;;;;;;;;25.50;66.30;;;;;;5113913;28;19961;-74
2022/08/11 08:22:02;;;;;;;;;;;25.60;66.30;;;;;;5114469;28;19908;-71
2022/08/11 08:24:28;;;;;;;;;;;25.60;66.20;;;;;;5114437;28;19951;-74
2022/08/11 08:26:57;;;;;;;;;;;25.70;66.00;;;;;;5113878;28;19912;-74
2022/08/11 08:32:07;;;;;;;;;;;25.70;65.70;;;;;;5118356;28;19916;-74
2022/08/11 08:34:36;;;;;;;;;;;25.70;65.50;;;;;;5118278;28;19908;-74
2022/08/11 08:37:04;;;;;;;;;;;25.60;65.60;;;;;;5116595;28;19926;-73
2022/08/11 08:39:32;;;;;;;;;;;25.60;65.60;;;;;;5117181;28;19915;-74
2022/08/11 08:41:58;;;;;;;;;;;25.60;65.60;;;;;;5118335;28;20365;-73
2022/08/11 08:44:24;;;;;;;;;;;25.60;65.40;;;;;;5115236;28;19947;-75
2022/08/11 08:46:54;;;;;;;;;;;25.60;65.70;;;;;;5117202;28;19908;-74
2022/08/11 08:49:31;;;;;;;;;;;25.60;65.60;;;;;;5117367;28;20376;-75
2022/08/11 08:52:00;;;;;;;;;;;25.60;65.60;;;;;;5116430;28;20358;-73
2022/08/11 08:54:33;;;;;;;;;;;25.60;65.40;;;;;;5117394;28;19998;-74
2022/08/11 08:57:04;;;;;;;;;;;25.60;65.70;;;;;;5117173;28;20300;-74
2022/08/11 08:59:30;;;;;;;;;;;25.60;65.60;;;;;;5117104;28;19959;-75
2022/08/11 09:02:15;;;;;;;;;;;25.70;65.70;;;;;;5116832;28;20324;-72
2022/08/11 09:04:43;;;;;;;;;;;25.70;65.50;;;;;;5116943;28;19920;-74
2022/08/11 09:07:14;;;;;;;;;;;25.80;65.60;;;;;;5117003;28;19911;-74
2022/08/11 09:09:50;;;;;;;;;;;25.90;65.40;;;;;;5117075;28;19912;-73
2022/08/11 09:12:17;;;;;;;;;;;25.90;65.40;;;;;;5116988;28;19908;-74
2022/08/11 09:15:04;;;;;;;;;;;25.90;65.30;;;;;;5116673;28;19908;-73
2022/08/11 09:17:32;;;;;;;;;;;25.90;65.30;;;;;;5116628;28;19954;-73
2022/08/11 09:20:18;;;;;;;;;;;25.90;65.30;;;;;;5115497;28;19908;-75
2022/08/11 09:28:14;;;;;;;;;;;26.00;65.50;;;;;;5116864;28;19964;-75
2022/08/11 09:30:45;;;;;;;;;;;26.00;65.60;;;;;;5116638;28;20002;-74
2022/08/11 09:33:15;;;;;;;;;;;26.10;65.50;;;;;;5115161;28;20398;-73
2022/08/11 09:35:44;;;;;;;;;;;26.20;65.30;;;;;;5117017;28;19908;-76
2022/08/11 09:40:55;;;;;;;;;;;26.20;65.20;;;;;;5115257;28;19916;-74
2022/08/11 09:46:07;;;;;;;;;;;26.30;64.90;;;;;;5116623;28;20368;-74
2022/08/11 09:48:39;;;;;;;;;;;26.30;64.80;;;;;;5116170;28;19915;-74
2022/08/11 09:51:06;;;;;;;;;;;26.80;65.30;;;;;;5116264;28;19916;-75
2022/08/11 09:53:35;;;;;;;;;;;26.30;64.90;;;;;;5114672;28;19912;-75
2022/08/11 09:58:12;;;;;;;;;;;26.30;64.90;;;;;;5115838;28;19908;-73
2022/08/11 09:58:50;;;;;;;;;;;26.30;65.00;;;;;;5115673;28;19914;-78
2022/08/11 10:01:25;;;;;;;;;;;26.20;65.10;;;;;;5114702;28;19908;-74
2022/08/11 10:03:57;;;;;;;;;;;26.20;65.20;;;;;;5115948;28;20350;-75
2022/08/11 10:09:08;;;;;;;;;;;26.10;65.40;;;;;;5115784;28;19918;-74
2022/08/11 10:11:36;;;;;;;;;;;26.10;65.40;;;;;;5115693;28;19912;-74
2022/08/11 10:16:50;;;;;;;;;;;26.00;65.70;;;;;;5115829;28;20427;-74
2022/08/11 10:19:17;;;;;;;;;;;26.00;66.00;;;;;;5115511;28;20338;-75
2022/08/11 10:26:48;;;;;;;;;;;25.90;66.00;;;;;;5115562;28;19943;-75
2022/08/11 10:27:17;;;;;;;;;;;26.00;66.40;;;;;;5115535;28;19918;-75
2022/08/11 10:35:17;;;;;;;;;;;26.10;66.60;;;;;;5115630;28;20475;-75
2022/08/11 10:37:44;;;;;;;;;;;26.10;66.60;;;;;;5114004;28;19920;-76
2022/08/11 10:40:14;;;;;;;;;;;26.20;66.60;;;;;;5115410;28;20006;-75
2022/08/11 10:48:09;;;;;;;;;;;26.40;66.30;;;;;;5115369;28;20271;-74
2022/08/11 10:58:50;;;;;;;;;;;26.90;66.60;;;;;;5115021;28;19915;-78
2022/08/11 11:01:23;;;;;;;;;;;27.00;66.40;;;;;;5114877;28;19908;-74
2022/08/11 11:03:53;;;;;;;;;;;27.00;66.30;;;;;;5115356;28;19907;-74
2022/08/11 11:06:32;;;;;;;;;;;27.10;66.50;;;;;;5114694;28;19920;-77
2022/08/11 11:09:07;;;;;;;;;;;27.00;66.20;;;;;;5114422;28;20010;-74
2022/08/11 11:19:39;;;;;;;;;;;27.00;65.90;;;;;;5114386;28;20002;-74
2022/08/11 11:22:51;;;;;;;;;;;27.00;66.20;;;;;;5113983;28;19915;-73
2022/08/11 11:24:58;;;;;;;;;;;27.00;66.10;;;;;;5109706;28;19912;-74
2022/08/11 11:27:30;;;;;;;;;;;26.90;66.10;;;;;;5114403;28;19911;-75
2022/08/11 11:30:07;;;;;;;;;;;26.90;66.10;;;;;;5114750;28;20416;-75
2022/08/11 11:32:51;;;;;;;;;;;27.00;66.30;;;;;;5114381;28;19919;-71
2022/08/11 11:35:25;;;;;;;;;;;27.00;66.10;;;;;;5114082;28;20333;-74
2022/08/11 11:37:51;;;;;;;;;;;27.00;65.60;;;;;;5112923;28;19912;-78
2022/08/11 11:40:20;;;;;;;;;;;27.00;65.40;;;;;;5112917;28;19908;-75
2022/08/11 11:42:46;;;;;;;;;;;27.10;65.30;;;;;;5114486;28;19915;-75
2022/08/11 11:45:19;;;;;;;;;;;27.20;65.30;;;;;;5114271;28;19912;-75
2022/08/11 11:47:46;;;;;;;;;;;27.30;65.10;;;;;;5114073;28;19919;-75
2022/08/11 11:50:12;;;;;;;;;;;27.30;64.90;;;;;;5114133;28;19918;-75
2022/08/11 11:52:39;;;;;;;;;;;27.40;64.90;;;;;;5112331;28;20012;-78
2022/08/11 11:55:05;;;;;;;;;;;27.40;65.10;;;;;;5114465;28;20027;-74
2022/08/11 12:03:01;;;;;;;;;;;27.50;64.80;;;;;;5114436;28;20092;-75
2022/08/11 12:05:27;;;;;;;;;;;27.50;64.80;;;;;;5113830;28;20019;-75
2022/08/11 12:10:48;;;;;;;;;;;27.60;64.80;;;;;;5114040;28;19919;-75
2022/08/11 12:16:02;;;;;;;;;;;27.80;64.70;;;;;;5114102;28;19936;-75
2022/08/11 12:18:33;;;;;;;;;;;28.00;64.50;;;;;;5113704;28;19915;-74
2022/08/11 12:20:59;;;;;;;;;;;28.20;64.40;;;;;;5113970;28;19908;-75
2022/08/11 12:28:58;;;;;;;;;;;28.30;63.70;;;;;;5113381;28;20277;-76
2022/08/11 12:31:24;;;;;;;;;;;28.30;63.70;;;;;;5113428;28;19912;-75
2022/08/11 12:33:50;;;;;;;;;;;28.40;64.30;;;;;;5113254;28;19908;-74
2022/08/11 12:36:17;;;;;;;;;;;28.50;63.70;;;;;;5113918;28;20002;-73
2022/08/11 12:38:46;;;;;;;;;;;28.50;63.60;;;;;;5111897;28;19912;-76
2022/08/11 12:46:43;;;;;;;;;;;28.80;63.00;;;;;;5113536;28;19918;-74
2022/08/11 12:52:00;;;;;;;;;;;29.10;63.10;;;;;;5113573;28;19937;-75
2022/08/11 12:54:44;;;;;;;;;;;29.20;62.80;;;;;;5113482;28;19953;-73
2022/08/11 13:05:27;;;;;;;;;;;29.60;62.00;;;;;;5113128;28;19930;-75
2022/08/11 13:07:52;;;;;;;;;;;29.70;61.60;;;;;;5112915;28;19916;-75
2022/08/11 13:13:05;;;;;;;;;;;29.80;61.60;;;;;;5113939;28;20400;-75
2022/08/11 13:15:31;;;;;;;;;;;29.80;61.20;;;;;;5115307;28;19912;-75
2022/08/11 13:17:57;;;;;;;;;;;29.80;60.10;;;;;;5116876;28;19915;-74
2022/08/11 13:20:24;;;;;;;;;;;29.70;61.30;;;;;;5116683;28;19907;-73
2022/08/11 13:22:51;;;;;;;;;;;29.70;61.40;;;;;;5116370;28;19908;-75
2022/08/11 13:25:17;;;;;;;;;;;29.80;61.40;;;;;;5115509;28;19960;-74
2022/08/11 13:27:44;;;;;;;;;;;29.80;61.00;;;;;;5115180;28;20026;-78
2022/08/11 13:32:55;;;;;;;;;;;29.80;61.00;;;;;;5117088;28;19914;-75
2022/08/11 13:35:21;;;;;;;;;;;29.80;61.00;;;;;;5116861;28;19994;-73
2022/08/11 13:37:49;;;;;;;;;;;29.70;60.90;;;;;;5114987;28;19915;-73
2022/08/11 13:40:15;;;;;;;;;;;29.60;60.80;;;;;;5116553;28;20006;-74
2022/08/11 13:42:42;;;;;;;;;;;29.60;60.70;;;;;;5098859;28;19912;-75
2022/08/11 13:45:08;;;;;;;;;;;29.50;60.80;;;;;;5115281;28;19958;-74
2022/08/11 13:47:35;;;;;;;;;;;29.40;60.90;;;;;;5116597;28;19959;-74
2022/08/11 13:50:01;;;;;;;;;;;29.30;61.00;;;;;;5116902;28;19911;-75
2022/08/11 13:52:27;;;;;;;;;;;29.20;61.30;;;;;;5116635;28;19994;-75
2022/08/11 13:54:53;;;;;;;;;;;29.10;61.50;;;;;;5116766;28;19970;-75
2022/08/11 13:57:19;;;;;;;;;;;28.90;61.60;;;;;;5116392;28;19908;-74
2022/08/11 13:59:53;;;;;;;;;;;28.90;62.00;;;;;;5116204;28;19998;-75
2022/08/11 14:02:26;;;;;;;;;;;28.90;62.40;;;;;;5116496;28;19912;-75
2022/08/11 14:04:54;;;;;;;;;;;29.00;62.40;;;;;;5116808;28;19942;-75
2022/08/11 14:07:23;;;;;;;;;;;29.10;62.40;;;;;;5116770;28;20010;-74
2022/08/11 14:09:56;;;;;;;;;;;29.20;62.10;;;;;;5114550;28;22189;-74
2022/08/11 14:15:18;;;;;;;;;;;29.80;61.60;;;;;;5116270;28;19988;-75
2022/08/11 14:17:46;;;;;;;;;;;30.10;61.30;;;;;;5115825;28;19924;-75
2022/08/11 14:20:14;;;;;;;;;;;30.20;60.70;;;;;;5115999;28;19915;-74
2022/08/11 14:22:41;;;;;;;;;;;30.20;60.40;;;;;;5116079;28;19908;-75
2022/08/11 14:25:07;;;;;;;;;;;30.00;60.20;;;;;;5115717;28;20273;-75
2022/08/11 14:27:33;;;;;;;;;;;30.10;60.80;;;;;;5115840;28;19916;-74
2022/08/11 14:29:58;;;;;;;;;;;30.50;61.60;;;;;;5115685;28;19957;-74
2022/08/11 14:32:25;;;;;;;;;;;30.70;60.70;;;;;;5114479;28;20316;-76
2022/08/11 14:34:50;;;;;;;;;;;30.90;59.60;;;;;;5114221;28;19973;-74
2022/08/11 14:37:21;;;;;;;;;;;30.90;59.90;;;;;;5115340;28;19920;-75
2022/08/11 14:39:51;;;;;;;;;;;31.00;60.20;;;;;;5116137;28;19915;-74
2022/08/11 14:47:59;;;;;;;;;;;32.20;60.50;;;;;;5115506;28;19927;-75
2022/08/11 14:50:26;;;;;;;;;;;32.80;59.50;;;;;;5115681;28;19974;-75
2022/08/11 14:52:54;;;;;;;;;;;33.20;59.40;;;;;;5114181;28;19915;-74
2022/08/11 14:58:08;;;;;;;;;;;34.00;58.90;;;;;;5115293;28;20380;-75
2022/08/11 15:00:34;;;;;;;;;;;34.40;58.10;;;;;;5115846;28;19907;-72
2022/08/11 15:03:09;;;;;;;;;;;34.50;55.80;;;;;;5114130;28;19953;-74
2022/08/11 15:05:35;;;;;;;;;;;34.40;57.20;;;;;;5115328;28;19924;-74
2022/08/11 15:08:01;;;;;;;;;;;34.10;55.90;;;;;;5114806;28;19963;-73
2022/08/11 15:10:27;;;;;;;;;;;33.70;55.70;;;;;;5113901;28;20242;-74
2022/08/11 15:12:53;;;;;;;;;;;33.40;55.40;;;;;;5115135;28;20273;-75
2022/08/11 15:18:04;;;;;;;;;;;33.10;57.60;;;;;;5114097;28;19934;-74
2022/08/11 15:26:02;;;;;;;;;;;33.20;56.00;;;;;;5115036;28;19922;-74
2022/08/11 15:48:07;;;;;;;;;;;30.80;58.00;;;;;;5114165;28;20323;-73
2022/08/11 15:50:33;;;;;;;;;;;30.50;58.20;;;;;;5114984;28;20234;-75
2022/08/11 15:53:01;;;;;;;;;;;30.30;58.50;;;;;;5114109;28;19907;-75
2022/08/11 15:55:28;;;;;;;;;;;30.10;58.80;;;;;;5113917;28;19961;-74
2022/08/11 16:06:10;;;;;;;;;;;29.50;59.60;;;;;;5114083;28;19966;-75
2022/08/11 16:08:37;;;;;;;;;;;29.40;59.90;;;;;;5113600;28;20315;-75
2022/08/11 16:11:03;;;;;;;;;;;29.30;60.00;;;;;;5113651;28;20273;-75
2022/08/11 16:16:16;;;;;;;;;;;29.10;60.40;;;;;;5113346;28;20006;-75
2022/08/11 16:18:48;;;;;;;;;;;29.00;60.60;;;;;;5113667;28;19922;-74
2022/08/11 16:21:15;;;;;;;;;;;28.90;60.80;;;;;;5112731;28;19911;-74
2022/08/11 16:23:43;;;;;;;;;;;28.80;60.90;;;;;;5112281;28;19908;-74
2022/08/11 16:26:10;;;;;;;;;;;28.80;61.20;;;;;;5113516;28;19908;-74
2022/08/11 16:28:37;;;;;;;;;;;28.70;61.70;;;;;;5113978;28;19919;-75
2022/08/11 16:31:09;;;;;;;;;;;28.50;61.50;;;;;;5113825;28;19961;-75
2022/08/11 16:33:36;;;;;;;;;;;28.40;61.20;;;;;;5113998;28;19983;-75
2022/08/11 16:38:48;;;;;;;;;;;28.10;61.00;;;;;;5113625;28;19939;-75
2022/08/11 16:46:57;;;;;;;;;;;28.00;61.30;;;;;;5113372;28;19915;-75
2022/08/11 16:49:44;;;;;;;;;;;27.60;61.50;;;;;;5114769;28;20277;-75
2022/08/11 16:52:11;;;;;;;;;;;27.50;61.70;;;;;;5116284;28;19951;-75
2022/08/11 16:54:37;;;;;;;;;;;27.40;61.90;;;;;;5117481;28;19914;-74
2022/08/11 16:59:50;;;;;;;;;;;27.30;62.30;;;;;;5117623;28;19919;-75
2022/08/11 17:13:41;;;;;;;;;;;26.80;63.00;;;;;;5117413;28;20343;-76
2022/08/11 17:16:10;;;;;;;;;;;26.80;63.80;;;;;;5116239;28;20311;-75
2022/08/11 17:18:39;;;;;;;;;;;26.70;64.20;;;;;;5116986;28;19908;-75
2022/08/11 17:21:06;;;;;;;;;;;26.60;64.20;;;;;;5117036;28;19908;-75
2022/08/11 17:23:46;;;;;;;;;;;26.60;63.80;;;;;;5117323;28;19938;-76
2022/08/11 17:26:16;;;;;;;;;;;26.50;64.70;;;;;;5116658;28;19914;-74
2022/08/11 17:28:41;;;;;;;;;;;26.40;64.70;;;;;;5116795;28;19912;-74
2022/08/11 17:36:39;;;;;;;;;;;26.20;64.80;;;;;;5116661;28;20312;-73
2022/08/11 17:39:07;;;;;;;;;;;26.20;64.70;;;;;;5116556;28;19908;-75
2022/08/11 17:49:46;;;;;;;;;;;26.10;65.60;;;;;;5116477;28;19957;-77
2022/08/11 18:00:28;;;;;;;;;;;26.00;65.90;;;;;;5115749;28;20319;-76
2022/08/11 18:05:42;;;;;;;;;;;26.00;66.30;;;;;;5116167;28;20001;-76
